Qashlu, Yemen
Current Conditions -  °F | °C
As of 2:00 AM on Saturday 20 Dec 2014 (Local Time) from OYSQ Reporting Station
Broken Clouds Broken Clouds  
Wind Chill: 75°   Ceiling: 8000
Heat Index: 75°   Visibility: 6mi
Dew Point: 72°   Wind: 32mph
Humidity: 89%   Direction: 90°E
Pressure: 29.94"   Gusts: NA
Location:  12.61°N, 53.86°E
Report Text: OYSQ 192300Z 09028KT 9999 SCT018 BKN080 24/22 Q1014
Loading
Personal Weather Stations






























Interactive Weather Map New forecast layout! Learn more

10-Day Weather Forecast

Advertisements
Track Severe Weather on mobile